Time;durP1;ratioP1;P1;durP2;ratioP2;P2;SDS_P1;SDS_P2;PMS_P1;PMS_P2;Temp;Humidity;BMP_temperature;BMP_pressure;BME280_temperature;BME280_humidity;BME280_pressure;Samples;Min_cycle;Max_cycle;Signal;HPM_P1;HPM_P2
2024/03/18 00:00:36;;;;;;;27.47;25.80;;;;;;;;;;5076745;28;20454;-79
2024/03/18 00:03:03;;;;;;;27.03;25.23;;;;;;;;;;5062886;28;20458;-79
2024/03/18 00:05:30;;;;;;;26.30;24.60;;;;;;;;;;5057846;28;20489;-79
2024/03/18 00:07:57;;;;;;;26.97;25.20;;;;;;;;;;5075722;28;20508;-79
2024/03/18 00:10:24;;;;;;;26.70;25.00;;;;;;;;;;5080928;28;20496;-79
2024/03/18 00:12:51;;;;;;;26.33;24.60;;;;;;;;;;5080520;28;20933;-79
2024/03/18 00:15:19;;;;;;;27.33;25.53;;;;;;;;;;5060242;28;20455;-79
2024/03/18 00:17:46;;;;;;;27.53;25.83;;;;;;;;;;5060396;28;20456;-80
2024/03/18 00:20:14;;;;;;;27.27;25.57;;;;;;;;;;5060249;28;20493;-79
2024/03/18 00:22:42;;;;;;;26.30;24.70;;;;;;;;;;5058945;28;20852;-78
2024/03/18 00:25:11;;;;;;;27.97;26.23;;;;;;;;;;5060053;28;20476;-79
2024/03/18 00:27:38;;;;;;;27.40;25.40;;;;;;;;;;5060232;28;20438;-79
2024/03/18 00:30:06;;;;;;;27.43;25.63;;;;;;;;;;5059529;28;20454;-78
2024/03/18 00:32:34;;;;;;;28.47;26.37;;;;;;;;;;5059454;28;20459;-79
2024/03/18 00:35:01;;;;;;;27.70;25.80;;;;;;;;;;5059111;28;20494;-79
2024/03/18 00:37:29;;;;;;;28.10;26.10;;;;;;;;;;5059317;28;20457;-79
2024/03/18 00:39:56;;;;;;;28.00;26.17;;;;;;;;;;5058871;28;20698;-79
2024/03/18 00:42:22;;;;;;;28.80;26.70;;;;;;;;;;5058590;28;20524;-79
2024/03/18 00:44:49;;;;;;;27.53;25.73;;;;;;;;;;5059000;28;20447;-78
2024/03/18 00:47:16;;;;;;;27.73;25.93;;;;;;;;;;5058933;28;20453;-79
2024/03/18 00:49:44;;;;;;;28.60;26.70;;;;;;;;;;5059366;28;20454;-79
2024/03/18 00:52:11;;;;;;;28.07;26.27;;;;;;;;;;5058676;28;20522;-79
2024/03/18 00:54:39;;;;;;;28.13;26.03;;;;;;;;;;5058546;28;21053;-79
2024/03/18 00:57:06;;;;;;;27.80;25.90;;;;;;;;;;5058581;28;20461;-79
2024/03/18 00:59:33;;;;;;;29.37;26.93;;;;;;;;;;5059337;28;20432;-79
2024/03/18 01:02:00;;;;;;;28.03;26.03;;;;;;;;;;5058961;28;20627;-79
2024/03/18 01:04:27;;;;;;;29.43;27.27;;;;;;;;;;5058919;28;20520;-79
2024/03/18 01:06:58;;;;;;;28.20;26.30;;;;;;;;;;5059569;28;20475;-79
2024/03/18 01:09:24;;;;;;;30.13;27.77;;;;;;;;;;5059128;28;20809;-79
2024/03/18 01:11:51;;;;;;;27.63;25.73;;;;;;;;;;5058586;28;21145;-79
2024/03/18 01:14:19;;;;;;;28.30;26.30;;;;;;;;;;5058484;28;20445;-79
2024/03/18 01:16:47;;;;;;;27.80;26.00;;;;;;;;;;5059292;28;20457;-79
2024/03/18 01:19:15;;;;;;;28.40;26.40;;;;;;;;;;5058907;28;20456;-79
2024/03/18 01:21:42;;;;;;;28.37;26.57;;;;;;;;;;5058755;28;20538;-79
2024/03/18 01:24:10;;;;;;;27.40;25.40;;;;;;;;;;5059298;28;20465;-79
2024/03/18 01:26:37;;;;;;;27.40;25.50;;;;;;;;;;5059009;28;20449;-79
2024/03/18 01:29:05;;;;;;;29.10;27.20;;;;;;;;;;5059037;28;20456;-79
2024/03/18 01:31:32;;;;;;;28.60;26.80;;;;;;;;;;5057735;28;20449;-78
2024/03/18 01:34:00;;;;;;;29.10;27.20;;;;;;;;;;5058408;28;20480;-79
2024/03/18 01:36:27;;;;;;;27.20;25.50;;;;;;;;;;5059132;28;20439;-79
2024/03/18 01:38:54;;;;;;;30.27;27.93;;;;;;;;;;5059215;28;20446;-79
2024/03/18 01:41:22;;;;;;;28.17;26.10;;;;;;;;;;5058695;28;20454;-80
2024/03/18 01:43:49;;;;;;;28.27;26.47;;;;;;;;;;5058677;28;20909;-78
2024/03/18 01:46:17;;;;;;;28.23;26.40;;;;;;;;;;5059209;28;20454;-79
2024/03/18 01:48:45;;;;;;;27.67;25.87;;;;;;;;;;5058553;28;20460;-79
2024/03/18 01:51:12;;;;;;;28.53;26.83;;;;;;;;;;5057586;28;20538;-78
2024/03/18 01:53:39;;;;;;;27.97;26.17;;;;;;;;;;5058491;28;20469;-79
2024/03/18 01:56:09;;;;;;;28.13;26.33;;;;;;;;;;5058242;28;20449;-79
2024/03/18 01:58:38;;;;;;;28.60;26.47;;;;;;;;;;5067203;28;20518;-79
2024/03/18 02:01:06;;;;;;;28.33;26.43;;;;;;;;;;5077616;28;20456;-79
2024/03/18 02:03:32;;;;;;;28.53;26.47;;;;;;;;;;5077897;28;20487;-79
2024/03/18 02:06:00;;;;;;;29.23;27.17;;;;;;;;;;5078457;28;20441;-79
2024/03/18 02:08:27;;;;;;;29.37;27.37;;;;;;;;;;5078766;28;20460;-79
2024/03/18 02:10:54;;;;;;;27.90;26.10;;;;;;;;;;5077364;28;20907;-86
2024/03/18 02:13:21;;;;;;;28.93;27.03;;;;;;;;;;5078234;28;20446;-79
2024/03/18 02:15:49;;;;;;;28.50;26.43;;;;;;;;;;5078995;28;20421;-79
2024/03/18 02:18:16;;;;;;;29.37;27.47;;;;;;;;;;5078318;28;20518;-79
2024/03/18 02:20:43;;;;;;;28.53;26.73;;;;;;;;;;5077919;28;20423;-79
2024/03/18 02:23:13;;;;;;;27.97;25.73;;;;;;;;;;5063155;28;20489;-79
2024/03/18 02:25:42;;;;;;;29.57;27.57;;;;;;;;;;5058696;28;20480;-79
2024/03/18 02:28:09;;;;;;;28.83;26.83;;;;;;;;;;5057570;28;20854;-79
2024/03/18 02:30:36;;;;;;;27.37;25.57;;;;;;;;;;5058046;28;20432;-80
2024/03/18 02:33:03;;;;;;;28.50;26.50;;;;;;;;;;5058337;28;20497;-78
2024/03/18 02:35:30;;;;;;;28.10;26.30;;;;;;;;;;5057943;28;20824;-79
2024/03/18 02:37:57;;;;;;;27.50;25.80;;;;;;;;;;5058267;28;20432;-79
2024/03/18 02:40:26;;;;;;;29.07;27.07;;;;;;;;;;5058329;28;20538;-79
2024/03/18 02:42:54;;;;;;;29.30;27.07;;;;;;;;;;5057758;28;20516;-80
2024/03/18 02:45:22;;;;;;;28.10;26.10;;;;;;;;;;5075083;28;20475;-78
2024/03/18 02:47:48;;;;;;;28.40;26.50;;;;;;;;;;5078222;28;20459;-79
2024/03/18 02:50:18;;;;;;;29.57;27.40;;;;;;;;;;5078403;28;20512;-80
2024/03/18 02:52:45;;;;;;;29.80;27.70;;;;;;;;;;5062834;28;20468;-78
2024/03/18 02:55:12;;;;;;;29.43;27.43;;;;;;;;;;5057805;28;20499;-79
2024/03/18 02:57:41;;;;;;;28.77;26.73;;;;;;;;;;5057380;28;20464;-79
2024/03/18 03:00:10;;;;;;;29.73;27.60;;;;;;;;;;5058110;28;20456;-79
2024/03/18 03:02:37;;;;;;;28.17;26.37;;;;;;;;;;5058414;28;21002;-78
2024/03/18 03:05:04;;;;;;;31.10;28.60;;;;;;;;;;5059631;28;20560;-79
2024/03/18 03:07:31;;;;;;;28.93;26.87;;;;;;;;;;5075208;28;20454;-79
2024/03/18 03:09:58;;;;;;;28.57;26.57;;;;;;;;;;5077448;28;21080;-79
2024/03/18 03:12:26;;;;;;;30.33;28.27;;;;;;;;;;5060148;28;20505;-79
2024/03/18 03:14:54;;;;;;;29.60;27.57;;;;;;;;;;5067267;28;20489;-79
2024/03/18 03:17:23;;;;;;;31.30;29.10;;;;;;;;;;5057561;28;20502;-79
2024/03/18 03:19:50;;;;;;;29.60;27.40;;;;;;;;;;5057043;28;20423;-79
2024/03/18 03:22:19;;;;;;;31.83;29.53;;;;;;;;;;5055922;28;20512;-79
2024/03/18 03:24:47;;;;;;;30.73;28.23;;;;;;;;;;5056544;28;20447;-79
2024/03/18 03:27:14;;;;;;;29.37;27.23;;;;;;;;;;5057219;28;20445;-80
2024/03/18 03:29:41;;;;;;;29.87;27.50;;;;;;;;;;5056814;28;20439;-79
2024/03/18 03:32:11;;;;;;;32.57;29.97;;;;;;;;;;5064744;28;20424;-79
2024/03/18 03:34:38;;;;;;;28.20;26.13;;;;;;;;;;5056137;28;20474;-79
2024/03/18 03:37:07;;;;;;;28.00;26.00;;;;;;;;;;5057718;28;20453;-79
2024/03/18 03:39:35;;;;;;;30.40;28.17;;;;;;;;;;5069378;28;20500;-79
2024/03/18 03:42:03;;;;;;;30.87;28.23;;;;;;;;;;5080066;28;20466;-79
2024/03/18 03:44:30;;;;;;;31.53;28.93;;;;;;;;;;5080113;28;20793;-79
2024/03/18 03:46:57;;;;;;;30.90;28.57;;;;;;;;;;5080096;28;20448;-78
2024/03/18 03:49:28;;;;;;;30.80;28.33;;;;;;;;;;5080964;28;20811;-78
2024/03/18 03:51:55;;;;;;;31.50;29.13;;;;;;;;;;5078344;28;20427;-79
2024/03/18 03:54:22;;;;;;;31.00;28.70;;;;;;;;;;5069070;28;20874;-78
2024/03/18 03:56:49;;;;;;;31.33;28.80;;;;;;;;;;5059913;28;20471;-78
2024/03/18 03:59:16;;;;;;;31.27;28.87;;;;;;;;;;5061323;28;20495;-80
2024/03/18 04:01:44;;;;;;;31.13;28.73;;;;;;;;;;5060411;28;20497;-79
2024/03/18 04:04:11;;;;;;;30.47;28.20;;;;;;;;;;5060425;28;20476;-79
2024/03/18 04:06:39;;;;;;;30.37;28.27;;;;;;;;;;5060238;28;20448;-79
2024/03/18 04:09:06;;;;;;;32.50;30.00;;;;;;;;;;5060169;28;20547;-80
2024/03/18 04:11:33;;;;;;;30.57;28.37;;;;;;;;;;5060375;28;20423;-79
2024/03/18 04:14:00;;;;;;;30.83;28.70;;;;;;;;;;5075725;28;20528;-78
2024/03/18 04:16:27;;;;;;;31.33;28.80;;;;;;;;;;5080721;28;20443;-79
2024/03/18 04:18:54;;;;;;;32.83;30.13;;;;;;;;;;5080140;28;20485;-80
2024/03/18 04:21:21;;;;;;;28.00;26.10;;;;;;;;;;5079726;28;20452;-79
2024/03/18 04:23:50;;;;;;;30.63;28.17;;;;;;;;;;5062728;28;20472;-79
2024/03/18 04:26:17;;;;;;;31.03;28.53;;;;;;;;;;5060240;28;20625;-79
2024/03/18 04:28:44;;;;;;;32.70;30.30;;;;;;;;;;5060924;28;20507;-79
2024/03/18 04:31:14;;;;;;;30.50;28.30;;;;;;;;;;5059419;28;20457;-79
2024/03/18 04:33:41;;;;;;;31.93;29.20;;;;;;;;;;5060517;28;20478;-79
2024/03/18 04:36:09;;;;;;;30.43;28.23;;;;;;;;;;5059909;28;20501;-79
2024/03/18 04:38:36;;;;;;;31.70;29.00;;;;;;;;;;5059954;28;20943;-80
2024/03/18 04:41:05;;;;;;;31.23;28.83;;;;;;;;;;5066266;28;20448;-79
2024/03/18 04:43:32;;;;;;;30.47;28.30;;;;;;;;;;5068945;28;20518;-79
2024/03/18 04:45:59;;;;;;;31.23;28.60;;;;;;;;;;5059829;28;20556;-79
2024/03/18 04:48:26;;;;;;;30.90;28.70;;;;;;;;;;5060103;28;20453;-79
2024/03/18 04:50:53;;;;;;;30.67;28.27;;;;;;;;;;5059234;28;20480;-79
2024/03/18 04:53:20;;;;;;;30.33;28.20;;;;;;;;;;5059525;28;20479;-80
2024/03/18 04:55:46;;;;;;;30.13;27.80;;;;;;;;;;5059928;28;20446;-80
2024/03/18 04:58:14;;;;;;;31.80;29.40;;;;;;;;;;5059205;28;20464;-79
2024/03/18 05:00:42;;;;;;;30.57;28.40;;;;;;;;;;5059283;28;20498;-80
2024/03/18 05:03:09;;;;;;;30.60;28.30;;;;;;;;;;5059737;28;20486;-78
2024/03/18 05:05:36;;;;;;;30.83;28.47;;;;;;;;;;5059200;28;20475;-79
2024/03/18 05:08:03;;;;;;;30.70;28.40;;;;;;;;;;5060133;28;20454;-79
2024/03/18 05:10:30;;;;;;;29.37;26.90;;;;;;;;;;5059378;28;20571;-81
2024/03/18 05:13:01;;;;;;;30.23;27.90;;;;;;;;;;5059688;28;20450;-81
2024/03/18 05:15:29;;;;;;;29.97;27.43;;;;;;;;;;5059940;28;20507;-79
2024/03/18 05:17:56;;;;;;;29.33;27.10;;;;;;;;;;5059124;28;20929;-79
2024/03/18 05:20:23;;;;;;;29.90;27.70;;;;;;;;;;5059965;28;20462;-78
2024/03/18 05:22:50;;;;;;;31.03;28.73;;;;;;;;;;5059055;28;20511;-79
2024/03/18 05:25:17;;;;;;;29.57;27.50;;;;;;;;;;5059657;28;20480;-79
2024/03/18 05:27:44;;;;;;;30.20;28.00;;;;;;;;;;5059087;28;20932;-80
2024/03/18 05:30:12;;;;;;;30.23;27.73;;;;;;;;;;5059330;28;20449;-79
2024/03/18 05:32:40;;;;;;;30.20;27.93;;;;;;;;;;5058909;28;20450;-78
2024/03/18 05:35:07;;;;;;;29.50;27.03;;;;;;;;;;5058347;28;20567;-79
2024/03/18 05:37:34;;;;;;;30.93;28.43;;;;;;;;;;5075283;28;20531;-79
2024/03/18 05:40:03;;;;;;;29.87;27.60;;;;;;;;;;5078570;28;20425;-80
2024/03/18 05:42:31;;;;;;;30.37;28.07;;;;;;;;;;5078373;28;20451;-79
2024/03/18 05:44:58;;;;;;;30.13;27.90;;;;;;;;;;5078203;28;20834;-79
2024/03/18 05:47:25;;;;;;;31.33;28.83;;;;;;;;;;5078607;28;20451;-79
2024/03/18 05:49:53;;;;;;;30.57;28.23;;;;;;;;;;5078115;28;20933;-78
2024/03/18 05:52:21;;;;;;;30.43;28.03;;;;;;;;;;5078353;28;20460;-79
2024/03/18 05:54:48;;;;;;;32.33;29.73;;;;;;;;;;5071043;28;20470;-78
2024/03/18 05:57:15;;;;;;;31.03;28.60;;;;;;;;;;5059044;28;20457;-79
2024/03/18 05:59:42;;;;;;;30.90;28.50;;;;;;;;;;5059247;28;20458;-78
2024/03/18 06:02:10;;;;;;;31.70;29.30;;;;;;;;;;5057313;28;20442;-80
2024/03/18 06:04:37;;;;;;;31.00;28.73;;;;;;;;;;5062652;28;20496;-78
2024/03/18 06:07:06;;;;;;;30.83;28.47;;;;;;;;;;5059092;28;20488;-79
2024/03/18 06:09:33;;;;;;;31.03;28.50;;;;;;;;;;5059000;28;20805;-78
2024/03/18 06:12:00;;;;;;;30.47;28.27;;;;;;;;;;5062244;28;21357;-79
2024/03/18 06:14:27;;;;;;;30.33;28.13;;;;;;;;;;5075482;28;20496;-79
2024/03/18 06:16:54;;;;;;;30.83;28.53;;;;;;;;;;5063971;28;20456;-79
2024/03/18 06:19:21;;;;;;;29.50;27.33;;;;;;;;;;5057756;28;20444;-79
2024/03/18 06:21:49;;;;;;;31.17;28.73;;;;;;;;;;5058132;28;21424;-79
2024/03/18 06:24:23;;;;;;;29.30;27.10;;;;;;;;;;5060480;28;20492;-79
2024/03/18 06:26:49;;;;;;;29.37;26.93;;;;;;;;;;5079427;28;20432;-79
2024/03/18 06:29:16;;;;;;;29.17;27.20;;;;;;;;;;5079501;28;20434;-79
2024/03/18 06:31:43;;;;;;;30.67;28.40;;;;;;;;;;5078208;28;20443;-81
2024/03/18 06:34:10;;;;;;;30.07;27.97;;;;;;;;;;5078496;28;20465;-80
2024/03/18 06:36:37;;;;;;;31.80;29.40;;;;;;;;;;5077866;28;20476;-80
2024/03/18 06:39:04;;;;;;;29.27;27.17;;;;;;;;;;5078392;28;20922;-80
2024/03/18 06:41:34;;;;;;;31.43;28.93;;;;;;;;;;5077942;28;20451;-80
2024/03/18 06:44:01;;;;;;;30.43;28.03;;;;;;;;;;5077895;28;20500;-80
2024/03/18 06:46:28;;;;;;;31.27;29.13;;;;;;;;;;5078593;28;20429;-80
2024/03/18 06:48:55;;;;;;;31.50;29.17;;;;;;;;;;5078324;28;20485;-80
2024/03/18 06:51:22;;;;;;;30.03;27.60;;;;;;;;;;5077420;28;20426;-80
2024/03/18 06:53:49;;;;;;;30.40;28.03;;;;;;;;;;5078098;28;20472;-80
2024/03/18 06:56:17;;;;;;;29.40;27.10;;;;;;;;;;5078050;28;20449;-80
2024/03/18 06:58:46;;;;;;;30.07;27.77;;;;;;;;;;5078285;28;21103;-80
2024/03/18 07:01:13;;;;;;;30.67;28.47;;;;;;;;;;5077793;28;20446;-80
2024/03/18 07:03:40;;;;;;;31.30;28.73;;;;;;;;;;5078064;28;20607;-80
2024/03/18 07:06:07;;;;;;;32.17;29.43;;;;;;;;;;5078089;28;20455;-81
2024/03/18 07:08:34;;;;;;;29.30;27.10;;;;;;;;;;5078523;28;20464;-80
2024/03/18 07:11:01;;;;;;;29.97;27.57;;;;;;;;;;5064586;28;20467;-80
2024/03/18 07:13:28;;;;;;;31.00;28.70;;;;;;;;;;5056487;28;20477;-81
2024/03/18 07:15:58;;;;;;;30.67;28.37;;;;;;;;;;5063441;28;20545;-80
2024/03/18 07:18:25;;;;;;;30.97;28.77;;;;;;;;;;5061090;28;20434;-79
2024/03/18 07:20:54;;;;;;;31.57;29.23;;;;;;;;;;5060764;28;20441;-79
2024/03/18 07:23:21;;;;;;;30.27;27.87;;;;;;;;;;5060348;28;20580;-79
2024/03/18 07:25:48;;;;;;;31.73;29.43;;;;;;;;;;5061366;28;20832;-80
2024/03/18 07:28:14;;;;;;;30.87;28.53;;;;;;;;;;5061245;28;20478;-80
2024/03/18 07:30:45;;;;;;;33.10;30.60;;;;;;;;;;5061546;28;20851;-80
2024/03/18 07:33:14;;;;;;;30.57;28.37;;;;;;;;;;5061554;28;20486;-80
2024/03/18 07:35:41;;;;;;;33.70;30.93;;;;;;;;;;5061557;28;20472;-80
2024/03/18 07:38:08;;;;;;;31.20;28.93;;;;;;;;;;5061756;28;20458;-80
2024/03/18 07:40:35;;;;;;;33.30;30.60;;;;;;;;;;5060740;28;20428;-79
2024/03/18 07:43:02;;;;;;;31.67;29.30;;;;;;;;;;5061353;28;20444;-80
2024/03/18 07:45:29;;;;;;;31.80;29.40;;;;;;;;;;5061186;28;20499;-80
2024/03/18 07:48:04;;;;;;;33.03;30.10;;;;;;;;;;5060836;28;20452;-80
2024/03/18 07:50:32;;;;;;;31.63;29.23;;;;;;;;;;5059950;28;20468;-80
2024/03/18 07:52:59;;;;;;;32.20;29.80;;;;;;;;;;5063971;28;20486;-79
2024/03/18 07:55:26;;;;;;;31.70;29.30;;;;;;;;;;5060846;28;21032;-80
2024/03/18 07:57:53;;;;;;;31.97;29.67;;;;;;;;;;5063848;28;20473;-79
2024/03/18 08:00:20;;;;;;;31.17;28.77;;;;;;;;;;5061042;28;20433;-80
2024/03/18 08:02:47;;;;;;;32.13;29.47;;;;;;;;;;5060115;28;20457;-81
2024/03/18 08:05:15;;;;;;;33.00;30.43;;;;;;;;;;5063871;28;21056;-80
2024/03/18 08:07:43;;;;;;;31.43;28.80;;;;;;;;;;5065391;28;20458;-81
2024/03/18 08:10:11;;;;;;;30.93;28.63;;;;;;;;;;5062011;28;21094;-80
2024/03/18 08:12:38;;;;;;;31.27;28.83;;;;;;;;;;5079763;28;20522;-80
2024/03/18 08:15:05;;;;;;;30.80;28.13;;;;;;;;;;5080321;28;20545;-80
2024/03/18 08:17:32;;;;;;;32.30;29.80;;;;;;;;;;5080558;28;20443;-79
2024/03/18 08:19:59;;;;;;;30.47;28.17;;;;;;;;;;5080598;28;20522;-80
2024/03/18 08:22:26;;;;;;;30.43;28.23;;;;;;;;;;5079908;28;20455;-80
2024/03/18 08:24:54;;;;;;;32.90;30.30;;;;;;;;;;5080316;28;20525;-79
2024/03/18 08:27:21;;;;;;;31.30;28.57;;;;;;;;;;5079433;28;20452;-80
2024/03/18 08:29:48;;;;;;;32.13;29.70;;;;;;;;;;5078868;28;20458;-80
2024/03/18 08:32:15;;;;;;;32.33;29.87;;;;;;;;;;5079374;28;20453;-80
2024/03/18 08:34:43;;;;;;;31.63;28.93;;;;;;;;;;5070892;28;20531;-80
2024/03/18 08:37:10;;;;;;;31.97;29.23;;;;;;;;;;5059933;28;20452;-79
2024/03/18 08:39:37;;;;;;;30.03;27.73;;;;;;;;;;5059930;28;21363;-80
2024/03/18 08:42:06;;;;;;;32.43;29.73;;;;;;;;;;5068608;28;20448;-79
2024/03/18 08:44:33;;;;;;;31.40;28.60;;;;;;;;;;5080800;28;20488;-80
2024/03/18 08:47:00;;;;;;;30.57;28.37;;;;;;;;;;5075647;28;20451;-80
2024/03/18 08:49:27;;;;;;;31.53;29.03;;;;;;;;;;5061395;28;20456;-80
2024/03/18 08:51:54;;;;;;;32.50;30.00;;;;;;;;;;5058854;28;20506;-81
2024/03/18 08:54:21;;;;;;;32.10;29.20;;;;;;;;;;5059699;28;20482;-80
2024/03/18 08:56:48;;;;;;;34.43;31.73;;;;;;;;;;5060402;28;21261;-80
2024/03/18 08:59:16;;;;;;;32.97;30.50;;;;;;;;;;5060001;28;20433;-79
2024/03/18 09:01:43;;;;;;;32.33;29.73;;;;;;;;;;5063721;28;20462;-80
2024/03/18 09:04:10;;;;;;;32.90;30.13;;;;;;;;;;5059829;28;20492;-79
2024/03/18 09:06:37;;;;;;;31.93;29.30;;;;;;;;;;5060130;28;20857;-80
2024/03/18 09:09:06;;;;;;;33.30;30.20;;;;;;;;;;5060255;28;20426;-81
2024/03/18 09:11:33;;;;;;;32.63;29.47;;;;;;;;;;5058801;28;20456;-81
2024/03/18 09:14:00;;;;;;;33.10;30.20;;;;;;;;;;5059816;28;20487;-80
2024/03/18 09:16:28;;;;;;;32.10;29.70;;;;;;;;;;5065482;28;20774;-80
2024/03/18 09:18:56;;;;;;;30.40;28.10;;;;;;;;;;5076277;28;21144;-80
2024/03/18 09:21:23;;;;;;;33.43;30.80;;;;;;;;;;5079062;28;20459;-80
2024/03/18 09:23:50;;;;;;;31.23;28.53;;;;;;;;;;5073686;28;21008;-83
2024/03/18 09:26:17;;;;;;;31.73;29.30;;;;;;;;;;5074251;28;20487;-80
2024/03/18 09:28:44;;;;;;;31.47;29.00;;;;;;;;;;5065527;28;20461;-79
2024/03/18 09:31:11;;;;;;;32.03;29.53;;;;;;;;;;5077808;28;20428;-80
2024/03/18 09:33:40;;;;;;;30.97;28.57;;;;;;;;;;5077916;28;20483;-79
2024/03/18 09:36:07;;;;;;;30.27;27.90;;;;;;;;;;5079920;28;20439;-79
2024/03/18 09:38:34;;;;;;;31.93;29.43;;;;;;;;;;5079796;28;20458;-83
2024/03/18 09:41:04;;;;;;;29.57;27.40;;;;;;;;;;5079160;28;20513;-79
2024/03/18 09:43:33;;;;;;;31.03;28.33;;;;;;;;;;5080516;28;20455;-81
2024/03/18 09:46:00;;;;;;;31.70;28.87;;;;;;;;;;5080095;28;20518;-81
2024/03/18 09:48:27;;;;;;;32.00;29.50;;;;;;;;;;5080076;28;20414;-80
2024/03/18 09:50:56;;;;;;;30.43;27.93;;;;;;;;;;5080349;28;20481;-80
2024/03/18 09:53:23;;;;;;;32.70;29.83;;;;;;;;;;5080685;28;20483;-80
2024/03/18 09:55:51;;;;;;;31.17;28.50;;;;;;;;;;5074294;28;20452;-80
2024/03/18 09:58:18;;;;;;;31.87;28.77;;;;;;;;;;5071402;28;20528;-81
2024/03/18 10:00:45;;;;;;;31.80;29.23;;;;;;;;;;5079935;28;20432;-81
2024/03/18 10:03:19;;;;;;;33.80;30.90;;;;;;;;;;5080181;28;20427;-80
2024/03/18 10:05:47;;;;;;;28.40;26.10;;;;;;;;;;5075382;28;20471;-80
2024/03/18 10:08:16;;;;;;;31.93;29.27;;;;;;;;;;5060432;28;20462;-83
2024/03/18 10:10:45;;;;;;;31.80;29.10;;;;;;;;;;5058101;28;20463;-80
2024/03/18 10:13:12;;;;;;;33.30;30.57;;;;;;;;;;5058441;28;20436;-80
2024/03/18 10:15:39;;;;;;;34.17;31.27;;;;;;;;;;5057918;28;21059;-80
2024/03/18 10:18:10;;;;;;;34.53;31.57;;;;;;;;;;5059459;28;20456;-80
2024/03/18 10:20:38;;;;;;;32.80;30.07;;;;;;;;;;5058653;28;20530;-81
2024/03/18 10:23:06;;;;;;;32.70;30.00;;;;;;;;;;5077292;28;21416;-81
2024/03/18 10:25:34;;;;;;;34.30;31.27;;;;;;;;;;5080271;28;20541;-81
2024/03/18 10:28:04;;;;;;;34.83;31.50;;;;;;;;;;5080546;28;20452;-81
2024/03/18 10:30:31;;;;;;;34.23;31.00;;;;;;;;;;5079673;28;20490;-82
2024/03/18 10:32:59;;;;;;;33.40;30.80;;;;;;;;;;5080062;28;20447;-80
2024/03/18 10:35:27;;;;;;;33.83;31.03;;;;;;;;;;5079714;28;20477;-80
2024/03/18 10:37:55;;;;;;;34.03;31.03;;;;;;;;;;5079627;28;20454;-81
2024/03/18 10:40:30;;;;;;;31.57;28.97;;;;;;;;;;5080149;28;20432;-81
2024/03/18 10:43:00;;;;;;;34.03;31.00;;;;;;;;;;5080362;28;20401;-80
2024/03/18 10:45:28;;;;;;;34.43;31.37;;;;;;;;;;5080293;28;20495;-82
2024/03/18 10:47:55;;;;;;;33.77;31.07;;;;;;;;;;5079361;28;20486;-81
2024/03/18 10:50:25;;;;;;;32.67;29.80;;;;;;;;;;5079146;28;20491;-80
2024/03/18 10:52:52;;;;;;;34.00;31.03;;;;;;;;;;5079053;28;20521;-80
2024/03/18 10:55:20;;;;;;;35.33;32.13;;;;;;;;;;5079216;28;20565;-80
2024/03/18 10:57:48;;;;;;;32.40;29.60;;;;;;;;;;5062707;28;20487;-80
2024/03/18 11:00:18;;;;;;;35.50;32.63;;;;;;;;;;5058786;28;20478;-80
2024/03/18 11:02:53;;;;;;;29.27;27.07;;;;;;;;;;5067193;28;20457;-80
2024/03/18 11:05:22;;;;;;;31.37;28.77;;;;;;;;;;5078716;28;20853;-79
2024/03/18 11:07:49;;;;;;;33.80;31.00;;;;;;;;;;5078050;28;20538;-79
2024/03/18 11:10:16;;;;;;;33.70;30.93;;;;;;;;;;5079473;28;20406;-79
2024/03/18 11:12:43;;;;;;;33.67;30.97;;;;;;;;;;5077861;28;20455;-79
2024/03/18 11:15:12;;;;;;;34.27;31.37;;;;;;;;;;5078411;28;20443;-87
2024/03/18 11:17:43;;;;;;;33.37;30.50;;;;;;;;;;5077475;28;20454;-80
2024/03/18 11:20:15;;;;;;;34.07;31.20;;;;;;;;;;5063562;28;20428;-80
2024/03/18 11:22:46;;;;;;;32.87;29.97;;;;;;;;;;5066339;28;20581;-79
2024/03/18 11:25:15;;;;;;;33.63;30.93;;;;;;;;;;5063221;28;20469;-79
2024/03/18 11:27:48;;;;;;;32.33;29.73;;;;;;;;;;5056832;28;20486;-79
2024/03/18 11:30:24;;;;;;;32.07;29.53;;;;;;;;;;5069965;28;20484;-83
2024/03/18 11:32:52;;;;;;;32.17;29.47;;;;;;;;;;5057613;28;20435;-79
2024/03/18 11:35:19;;;;;;;31.97;29.40;;;;;;;;;;5055967;28;20446;-79
2024/03/18 11:37:47;;;;;;;32.07;29.67;;;;;;;;;;5056365;28;20408;-80
2024/03/18 11:40:15;;;;;;;32.50;29.80;;;;;;;;;;5054672;28;20554;-79
2024/03/18 11:42:42;;;;;;;31.03;28.73;;;;;;;;;;5055977;28;20423;-78
2024/03/18 11:45:16;;;;;;;31.90;29.53;;;;;;;;;;5056195;28;20458;-79
2024/03/18 11:47:43;;;;;;;31.57;29.17;;;;;;;;;;5057017;28;20430;-78
2024/03/18 11:50:12;;;;;;;32.60;30.00;;;;;;;;;;5056485;28;20918;-78
2024/03/18 11:52:41;;;;;;;31.30;28.90;;;;;;;;;;5056161;28;20423;-79
2024/03/18 11:55:08;;;;;;;32.17;29.50;;;;;;;;;;5056371;28;20494;-79
2024/03/18 11:57:35;;;;;;;30.77;28.30;;;;;;;;;;5057230;28;20435;-79
2024/03/18 12:00:11;;;;;;;30.97;28.67;;;;;;;;;;5056205;28;20474;-79
2024/03/18 12:02:37;;;;;;;32.30;29.53;;;;;;;;;;5058918;28;20411;-79
2024/03/18 12:05:04;;;;;;;33.03;30.27;;;;;;;;;;5060056;28;20495;-79
2024/03/18 12:07:33;;;;;;;34.30;31.37;;;;;;;;;;5060988;28;20438;-80
2024/03/18 12:10:01;;;;;;;33.63;31.00;;;;;;;;;;5059855;28;20442;-79
2024/03/18 12:12:28;;;;;;;32.33;29.93;;;;;;;;;;5059052;28;20450;-79
2024/03/18 12:14:55;;;;;;;31.57;29.27;;;;;;;;;;5060374;28;20442;-79
2024/03/18 12:17:22;;;;;;;33.20;30.60;;;;;;;;;;5060161;28;20427;-79
2024/03/18 12:19:50;;;;;;;31.47;29.17;;;;;;;;;;5059957;28;20465;-79
2024/03/18 12:22:20;;;;;;;31.27;28.90;;;;;;;;;;5059532;28;20461;-79
2024/03/18 12:30:19;;;;;;;30.53;28.23;;;;;;;;;;5058821;28;20463;-79
2024/03/18 12:32:47;;;;;;;32.70;30.10;;;;;;;;;;5059515;28;20463;-79
2024/03/18 12:35:14;;;;;;;32.07;29.37;;;;;;;;;;5059410;28;20444;-78
2024/03/18 12:37:45;;;;;;;32.80;30.00;;;;;;;;;;5060284;28;20431;-80
2024/03/18 12:40:14;;;;;;;32.70;30.10;;;;;;;;;;5059283;28;20514;-79
2024/03/18 12:42:41;;;;;;;33.30;30.50;;;;;;;;;;5059048;28;20845;-79
2024/03/18 12:45:09;;;;;;;31.47;28.77;;;;;;;;;;5059804;28;20472;-79
2024/03/18 12:47:37;;;;;;;33.87;30.97;;;;;;;;;;5059276;28;20855;-79
2024/03/18 12:50:05;;;;;;;32.80;30.20;;;;;;;;;;5059713;28;20451;-79
2024/03/18 12:52:32;;;;;;;31.77;29.20;;;;;;;;;;5059425;28;20478;-78
2024/03/18 12:54:59;;;;;;;33.47;30.70;;;;;;;;;;5059632;28;20479;-79
2024/03/18 12:57:28;;;;;;;32.47;29.70;;;;;;;;;;5059304;28;20469;-79
2024/03/18 12:59:55;;;;;;;33.17;30.07;;;;;;;;;;5058900;28;20431;-80
2024/03/18 13:02:22;;;;;;;32.37;29.10;;;;;;;;;;5059204;28;20436;-79
2024/03/18 13:04:49;;;;;;;33.40;30.70;;;;;;;;;;5059195;28;20480;-79
2024/03/18 13:07:16;;;;;;;32.03;29.27;;;;;;;;;;5059067;28;20441;-78
2024/03/18 13:09:43;;;;;;;33.30;30.60;;;;;;;;;;5058946;28;20431;-79
2024/03/18 13:12:12;;;;;;;33.33;30.50;;;;;;;;;;5057380;28;20495;-79
2024/03/18 13:14:41;;;;;;;31.97;29.27;;;;;;;;;;5058952;28;20540;-79
2024/03/18 13:17:08;;;;;;;34.07;30.40;;;;;;;;;;5059072;28;20489;-79
2024/03/18 13:19:35;;;;;;;33.13;30.00;;;;;;;;;;5059197;28;20493;-79
2024/03/18 13:22:02;;;;;;;34.00;30.73;;;;;;;;;;5058906;28;20550;-80
2024/03/18 13:24:30;;;;;;;32.77;29.97;;;;;;;;;;5058768;28;20456;-79
2024/03/18 13:26:57;;;;;;;34.57;31.57;;;;;;;;;;5069011;28;20571;-80
2024/03/18 13:29:29;;;;;;;35.43;32.33;;;;;;;;;;5062665;28;20560;-78
2024/03/18 13:31:57;;;;;;;34.23;31.03;;;;;;;;;;5077493;28;20438;-78
2024/03/18 13:34:24;;;;;;;34.80;31.50;;;;;;;;;;5074858;28;20459;-78
2024/03/18 13:36:51;;;;;;;33.37;30.40;;;;;;;;;;5066388;28;20538;-79
2024/03/18 13:39:19;;;;;;;32.60;29.67;;;;;;;;;;5074183;28;20457;-80
2024/03/18 13:41:46;;;;;;;34.60;31.57;;;;;;;;;;5054552;28;20464;-79
2024/03/18 13:44:13;;;;;;;35.60;32.03;;;;;;;;;;5057007;28;20447;-79
2024/03/18 13:46:40;;;;;;;33.87;30.97;;;;;;;;;;5055752;28;20515;-79
2024/03/18 13:49:11;;;;;;;34.10;31.10;;;;;;;;;;5056969;28;20461;-79
2024/03/18 13:51:38;;;;;;;34.57;31.50;;;;;;;;;;5056779;28;20442;-79
2024/03/18 13:54:07;;;;;;;33.37;30.37;;;;;;;;;;5057542;28;20962;-79
2024/03/18 13:56:34;;;;;;;34.13;31.07;;;;;;;;;;5061806;28;20455;-79
2024/03/18 13:59:01;;;;;;;34.83;31.53;;;;;;;;;;5068211;28;20485;-79
2024/03/18 14:01:28;;;;;;;35.30;31.90;;;;;;;;;;5058166;28;20436;-78
2024/03/18 14:03:56;;;;;;;34.87;31.97;;;;;;;;;;5064157;28;21086;-79
2024/03/18 14:06:24;;;;;;;34.93;31.80;;;;;;;;;;5070952;28;20987;-79
2024/03/18 14:08:52;;;;;;;35.73;32.60;;;;;;;;;;5061679;28;20458;-79
2024/03/18 14:11:20;;;;;;;35.90;32.70;;;;;;;;;;5073980;28;20426;-79
2024/03/18 14:13:47;;;;;;;34.33;31.47;;;;;;;;;;5076871;28;20532;-79
2024/03/18 14:16:14;;;;;;;34.50;31.57;;;;;;;;;;5076423;28;20472;-79
2024/03/18 14:18:41;;;;;;;35.73;32.30;;;;;;;;;;5074608;28;21231;-79
2024/03/18 14:21:09;;;;;;;34.37;30.87;;;;;;;;;;5072414;28;20449;-79
2024/03/18 14:23:37;;;;;;;33.33;30.60;;;;;;;;;;5063395;28;20482;-79